createdAt,value
2022-08-28T00:00:41.248Z,99464.62
2022-08-28T00:03:56.274Z,99469.53
2022-08-28T00:06:59.690Z,99480.72
2022-08-28T00:10:05.375Z,99513.87
2022-08-28T00:13:10.403Z,99482.72
2022-08-28T00:16:13.619Z,99491.00
2022-08-28T00:19:17.970Z,99482.87
2022-08-28T00:22:21.035Z,99477.78
2022-08-28T00:25:26.620Z,99471.78
2022-08-28T00:28:30.641Z,99475.16
2022-08-28T00:31:34.857Z,99467.28
2022-08-28T00:34:38.901Z,99471.09
2022-08-28T00:37:41.892Z,99457.00
2022-08-28T00:40:46.715Z,99446.88
2022-08-28T00:43:50.097Z,99457.00
2022-08-28T00:46:56.032Z,99462.06
2022-08-28T00:49:58.839Z,99461.38
2022-08-28T00:53:01.962Z,99469.72
2022-08-28T00:56:12.830Z,99479.19
2022-08-28T00:59:19.746Z,99481.34
2022-08-28T01:02:22.612Z,99490.72
2022-08-28T01:05:26.507Z,99485.00
2022-08-28T01:08:31.367Z,99503.94
2022-08-28T01:11:34.832Z,99502.72
2022-08-28T01:14:40.700Z,99513.69
2022-08-28T01:17:48.712Z,99520.03
2022-08-28T01:21:20.247Z,99518.84
2022-08-28T01:24:24.197Z,99528.81
2022-08-28T01:27:27.831Z,99522.34
2022-08-28T01:30:32.190Z,99522.25
2022-08-28T01:33:35.223Z,99514.75
2022-08-28T01:36:39.293Z,99514.19
2022-08-28T01:39:42.081Z,99510.25
2022-08-28T01:42:47.045Z,99505.75
2022-08-28T01:45:53.927Z,99497.59
2022-08-28T01:49:00.761Z,99500.84
2022-08-28T01:52:07.018Z,99495.25
2022-08-28T01:55:12.762Z,99495.09
2022-08-28T01:58:18.744Z,99485.22
2022-08-28T02:01:23.490Z,99476.53
2022-08-28T02:04:32.153Z,99473.84
2022-08-28T02:07:35.380Z,99454.75
2022-08-28T02:10:47.129Z,99450.53
2022-08-28T02:13:59.945Z,99443.78
2022-08-28T02:17:05.873Z,99426.72
2022-08-28T02:20:10.077Z,99421.37
2022-08-28T02:23:13.982Z,99409.31
2022-08-28T02:26:17.465Z,99406.09
2022-08-28T02:29:20.802Z,99409.94
2022-08-28T02:32:24.011Z,99400.94
2022-08-28T02:35:27.270Z,99386.81
2022-08-28T02:38:31.339Z,99375.94
2022-08-28T02:41:38.648Z,99387.00
2022-08-28T02:44:42.772Z,99394.19
2022-08-28T02:48:20.077Z,99432.38
2022-08-28T02:51:24.472Z,99465.19
2022-08-28T02:54:27.769Z,99505.78
2022-08-28T02:57:32.329Z,99530.06
2022-08-28T03:00:35.901Z,99511.09
2022-08-28T03:15:46.765Z,99401.66
2022-08-28T03:18:55.326Z,99380.19
2022-08-28T03:21:58.260Z,99394.75
2022-08-28T03:25:01.412Z,99407.81
2022-08-28T03:32:11.022Z,99408.03
2022-08-28T03:35:24.147Z,99406.72
2022-08-28T03:38:28.161Z,99419.13
2022-08-28T03:41:32.156Z,99421.13
2022-08-28T03:44:38.313Z,99412.47
2022-08-28T03:47:42.066Z,99405.38
2022-08-28T03:50:47.543Z,99411.41
2022-08-28T03:53:52.859Z,99418.22
2022-08-28T03:56:56.019Z,99433.12
2022-08-28T04:00:00.177Z,99432.59
2022-08-28T04:31:32.335Z,99368.03
2022-08-28T05:07:01.798Z,99461.53
2022-08-28T05:10:12.559Z,99422.97
2022-08-28T05:13:57.073Z,99402.81
2022-08-28T05:17:40.306Z,99391.13
2022-08-28T05:48:30.387Z,99411.22
2022-08-28T05:51:36.832Z,99376.59
2022-08-28T05:54:46.472Z,99362.25
2022-08-28T05:57:52.628Z,99376.13
2022-08-28T06:00:59.949Z,99366.88
2022-08-28T06:17:01.811Z,99388.84
2022-08-28T06:21:02.894Z,99402.81
2022-08-28T06:45:49.000Z,99437.19
2022-08-28T06:46:01.774Z,99438.38
2022-08-28T06:49:32.168Z,99431.44
2022-08-28T06:52:35.532Z,99428.22
2022-08-28T07:15:41.744Z,99464.66
2022-08-28T07:18:49.663Z,99470.34
2022-08-28T07:21:52.845Z,99481.22
2022-08-28T08:35:14.441Z,99532.47
2022-08-28T08:38:59.522Z,99531.16
2022-08-28T08:42:55.806Z,99531.53
2022-08-28T09:02:46.126Z,99554.44
2022-08-28T09:05:55.127Z,99550.81
2022-08-28T09:09:01.139Z,99555.66
2022-08-28T09:12:14.982Z,99564.00
2022-08-28T09:15:33.614Z,99561.75
2022-08-28T09:18:36.459Z,99556.19
2022-08-28T09:21:45.207Z,99559.81
2022-08-28T09:24:48.013Z,99557.53
2022-08-28T09:27:54.959Z,99556.00
2022-08-28T09:31:01.778Z,99556.28
2022-08-28T09:34:38.762Z,99554.72
2022-08-28T09:37:44.935Z,99556.69
2022-08-28T09:41:08.989Z,99558.81
2022-08-28T09:44:32.054Z,99557.53
2022-08-28T09:52:32.114Z,99563.00
2022-08-28T09:55:57.089Z,99562.25
2022-08-28T10:04:06.538Z,99555.47
2022-08-28T10:40:36.576Z,99555.66
2022-08-28T10:44:02.992Z,99548.59
2022-08-28T11:02:12.874Z,99548.91
2022-08-28T11:30:11.322Z,99552.66
2022-08-28T11:33:37.833Z,99547.91
2022-08-28T11:44:26.327Z,99546.78
2022-08-28T11:47:45.702Z,99540.97
2022-08-28T11:51:32.109Z,99542.75
2022-08-28T11:55:00.789Z,99536.56
2022-08-28T12:01:31.717Z,99539.13
2022-08-28T12:06:23.204Z,99538.13
2022-08-28T12:09:27.270Z,99537.50
2022-08-28T12:12:33.020Z,99531.78
2022-08-28T12:16:03.946Z,99532.97
2022-08-28T12:19:08.407Z,99532.09
2022-08-28T12:22:13.751Z,99525.69
2022-08-28T12:25:25.354Z,99524.31
2022-08-28T12:28:33.284Z,99511.59
2022-08-28T12:32:13.318Z,99518.75
2022-08-28T12:39:08.261Z,99514.81
2022-08-28T12:42:17.374Z,99513.94
2022-08-28T12:49:35.379Z,99516.28
2022-08-28T12:52:48.477Z,99515.00
2022-08-28T12:55:52.892Z,99509.44
2022-08-28T12:59:37.674Z,99512.41
2022-08-28T13:02:41.810Z,99501.50
2022-08-28T13:05:55.327Z,99493.00
2022-08-28T13:09:02.315Z,99499.72
2022-08-28T13:12:07.361Z,99497.31
2022-08-28T13:15:13.914Z,99493.91
2022-08-28T13:18:50.094Z,99485.97
2022-08-28T13:22:05.120Z,99485.09
2022-08-28T13:25:16.824Z,99482.94
2022-08-28T13:28:20.155Z,99490.72
2022-08-28T13:31:30.609Z,99484.44
2022-08-28T13:34:36.833Z,99484.81
2022-08-28T13:37:49.550Z,99481.34
2022-08-28T13:41:04.277Z,99474.78
2022-08-28T13:44:08.854Z,99476.81
2022-08-28T13:47:18.746Z,99479.44
2022-08-28T13:54:05.043Z,99466.66
2022-08-28T13:57:11.457Z,99459.87
2022-08-28T14:00:16.024Z,99467.16
2022-08-28T14:03:39.277Z,99470.38
2022-08-28T14:06:46.095Z,99462.31
2022-08-28T14:09:56.103Z,99460.06
2022-08-28T14:13:02.410Z,99454.16
2022-08-28T14:16:08.105Z,99452.81
2022-08-28T14:19:36.997Z,99453.63
2022-08-28T14:22:41.535Z,99443.75
2022-08-28T14:25:45.896Z,99440.19
2022-08-28T14:28:50.227Z,99451.94
2022-08-28T14:31:53.177Z,99457.81
2022-08-28T14:34:57.251Z,99457.25
2022-08-28T14:38:00.072Z,99448.94
2022-08-28T14:41:03.543Z,99450.53
2022-08-28T14:44:06.346Z,99459.34
2022-08-28T14:47:11.764Z,99449.19
2022-08-28T14:50:16.662Z,99455.22
2022-08-28T14:56:48.571Z,99453.19
2022-08-28T15:00:15.409Z,99456.53
2022-08-28T15:07:22.158Z,99465.41
2022-08-28T15:10:51.391Z,99458.81
2022-08-28T15:13:55.776Z,99455.13
2022-08-28T15:17:48.350Z,99451.91
2022-08-28T15:20:54.412Z,99452.75
2022-08-28T15:23:58.076Z,99447.75
2022-08-28T15:27:02.253Z,99444.00
2022-08-28T15:30:30.487Z,99449.12
2022-08-28T15:33:33.843Z,99446.59
2022-08-28T15:36:55.204Z,99443.66
2022-08-28T15:40:40.482Z,99458.78
2022-08-28T15:43:47.724Z,99463.06
2022-08-28T15:46:58.269Z,99461.59
2022-08-28T15:50:11.298Z,99448.78
2022-08-28T15:53:17.788Z,99462.47
2022-08-28T15:56:35.211Z,99449.81
2022-08-28T15:59:49.070Z,99456.19
2022-08-28T16:03:00.083Z,99453.06
2022-08-28T16:06:04.553Z,99442.91
2022-08-28T16:09:09.275Z,99439.78
2022-08-28T16:12:45.259Z,99438.38
2022-08-28T16:16:04.309Z,99435.66
2022-08-28T16:19:11.656Z,99436.37
2022-08-28T16:22:16.684Z,99433.47
2022-08-28T16:25:35.749Z,99440.22
2022-08-28T16:28:39.389Z,99442.31
2022-08-28T16:32:03.288Z,99437.78
2022-08-28T16:35:07.469Z,99436.47
2022-08-28T16:38:12.383Z,99436.56
2022-08-28T16:41:24.277Z,99448.09
2022-08-28T16:44:30.926Z,99449.50
2022-08-28T16:47:36.584Z,99444.94
2022-08-28T16:50:48.497Z,99451.81
2022-08-28T16:53:53.841Z,99453.81
2022-08-28T16:57:06.502Z,99451.56
2022-08-28T17:00:15.324Z,99455.13
2022-08-28T17:03:22.039Z,99454.78
2022-08-28T17:06:33.404Z,99457.09
2022-08-28T17:09:36.828Z,99465.34
2022-08-28T17:12:40.647Z,99474.22
2022-08-28T17:15:46.829Z,99483.66
2022-08-28T17:18:52.417Z,99484.34
2022-08-28T17:22:14.421Z,99487.16
2022-08-28T17:25:17.978Z,99491.03
2022-08-28T17:28:21.523Z,99496.38
2022-08-28T17:31:24.688Z,99504.06
2022-08-28T17:34:30.394Z,99509.19
2022-08-28T17:37:38.194Z,99505.25
2022-08-28T17:40:42.421Z,99512.59
2022-08-28T17:43:45.726Z,99523.25
2022-08-28T17:46:49.714Z,99524.12
2022-08-28T17:49:53.120Z,99525.25
2022-08-28T17:52:56.524Z,99520.37
2022-08-28T17:55:59.809Z,99518.00
2022-08-28T17:59:03.534Z,99527.13
2022-08-28T18:02:07.424Z,99515.22
2022-08-28T18:05:11.478Z,99523.22
2022-08-28T18:08:15.148Z,99523.63
2022-08-28T18:11:19.538Z,99531.78
2022-08-28T18:14:22.695Z,99531.41
2022-08-28T18:17:26.670Z,99530.38
2022-08-28T18:20:30.954Z,99534.31
2022-08-28T18:23:34.686Z,99537.56
2022-08-28T18:26:37.679Z,99534.50
2022-08-28T18:29:41.086Z,99531.47
2022-08-28T18:32:44.412Z,99545.66
2022-08-28T18:35:49.504Z,99544.22
2022-08-28T18:38:52.855Z,99550.28
2022-08-28T18:41:56.746Z,99554.09
2022-08-28T18:45:00.680Z,99555.34
2022-08-28T18:48:05.127Z,99558.81
2022-08-28T18:51:08.922Z,99558.91
2022-08-28T18:54:13.418Z,99565.22
2022-08-28T18:57:19.067Z,99573.34
2022-08-28T19:00:23.039Z,99569.97
2022-08-28T19:03:26.064Z,99571.69
2022-08-28T19:06:29.718Z,99573.91
2022-08-28T19:09:34.903Z,99583.38
2022-08-28T19:12:40.368Z,99569.59
2022-08-28T19:15:43.352Z,99579.75
2022-08-28T19:18:47.968Z,99579.25
2022-08-28T19:21:54.229Z,99586.72
2022-08-28T19:24:58.210Z,99583.50
2022-08-28T19:28:02.056Z,99577.81
2022-08-28T19:31:05.453Z,99578.25
2022-08-28T19:34:11.743Z,99584.03
2022-08-28T19:37:16.819Z,99591.84
2022-08-28T19:40:21.355Z,99592.75
2022-08-28T19:43:24.660Z,99593.81
2022-08-28T19:46:46.525Z,99600.47
2022-08-28T19:49:56.697Z,99604.28
2022-08-28T19:53:02.271Z,99608.16
2022-08-28T19:56:06.706Z,99614.38
2022-08-28T19:59:10.284Z,99614.53
2022-08-28T20:02:13.770Z,99616.06
2022-08-28T20:05:17.269Z,99623.75
2022-08-28T20:08:21.652Z,99629.75
2022-08-28T20:11:29.073Z,99633.28
2022-08-28T20:14:34.776Z,99633.44
2022-08-28T20:17:44.209Z,99640.06
2022-08-28T20:20:52.742Z,99643.72
2022-08-28T20:23:55.913Z,99636.50
2022-08-28T20:26:59.406Z,99631.44
2022-08-28T20:30:07.134Z,99637.25
2022-08-28T20:33:13.894Z,99631.88
2022-08-28T20:36:21.349Z,99645.66
2022-08-28T20:39:25.407Z,99643.06
2022-08-28T20:42:31.763Z,99638.13
2022-08-28T20:45:34.784Z,99646.25
2022-08-28T20:48:40.621Z,99652.69
2022-08-28T20:51:53.491Z,99646.66
2022-08-28T20:54:58.186Z,99644.66
2022-08-28T20:58:00.850Z,99656.03
2022-08-28T21:01:04.932Z,99652.38
2022-08-28T21:04:10.118Z,99651.75
2022-08-28T21:07:20.450Z,99646.78
2022-08-28T21:10:24.113Z,99649.41
2022-08-28T21:13:29.327Z,99654.50
2022-08-28T21:16:33.826Z,99652.91
2022-08-28T21:19:40.576Z,99663.03
2022-08-28T21:22:44.636Z,99664.53
2022-08-28T21:25:48.522Z,99669.47
2022-08-28T21:28:52.329Z,99661.19
2022-08-28T21:31:56.761Z,99667.66
2022-08-28T21:35:01.075Z,99672.47
2022-08-28T21:38:05.136Z,99675.09
2022-08-28T21:41:13.977Z,99675.69
2022-08-28T21:44:17.671Z,99674.28
2022-08-28T21:47:23.293Z,99688.75
2022-08-28T21:50:30.589Z,99678.72
2022-08-28T21:53:34.040Z,99687.13
2022-08-28T21:56:36.946Z,99684.16
2022-08-28T21:59:39.856Z,99678.63
2022-08-28T22:02:42.993Z,99686.41
2022-08-28T22:05:46.418Z,99686.53
2022-08-28T22:08:49.826Z,99689.56
2022-08-28T22:11:52.813Z,99699.75
2022-08-28T22:14:55.760Z,99688.72
2022-08-28T22:17:58.910Z,99683.91
2022-08-28T22:21:27.716Z,99680.25
2022-08-28T22:24:31.486Z,99680.06
2022-08-28T22:27:35.341Z,99684.28
2022-08-28T22:30:42.767Z,99677.81
2022-08-28T22:33:46.386Z,99684.97
2022-08-28T22:36:49.256Z,99684.97
2022-08-28T22:39:54.536Z,99684.97
2022-08-28T22:43:01.227Z,99686.38
2022-08-28T22:46:05.006Z,99683.50
2022-08-28T22:49:10.243Z,99679.78
2022-08-28T22:52:13.502Z,99684.72
2022-08-28T22:55:17.088Z,99684.16
2022-08-28T22:58:19.649Z,99683.75
2022-08-28T23:01:23.757Z,99688.37
2022-08-28T23:04:26.823Z,99687.50
2022-08-28T23:07:29.941Z,99688.37
2022-08-28T23:10:57.458Z,99679.56
2022-08-28T23:13:55.310Z,99687.84
2022-08-28T23:16:58.126Z,99687.53
2022-08-28T23:20:01.005Z,99686.22
2022-08-28T23:23:03.805Z,99683.94
2022-08-28T23:26:08.851Z,99682.47
2022-08-28T23:29:11.895Z,99689.66
2022-08-28T23:32:15.035Z,99687.75
2022-08-28T23:35:19.537Z,99685.47
2022-08-28T23:38:22.905Z,99693.41
2022-08-28T23:41:26.577Z,99687.34
2022-08-28T23:48:26.924Z,99704.56
2022-08-28T23:51:52.476Z,99712.37
2022-08-28T23:54:55.346Z,99711.81
2022-08-28T23:57:58.559Z,99708.06
